Jennifer Turecamo — WDD4175 — position and weather

sailwx.info

Track history (hours):
 
Tides and Currents Weather Stations Pressure Air Temp Water Temp Dewpoint Dewpoint Depression Visibility Wind Speed Wind Dir Waves Ship Positions

Jennifer Turecamo

Owner: MORAN TOWING CORPORATION, New Canaan, CT. More information available from US FCC via Universal Licensing System and Coast Guard Vessel Documentation Center.

Last reported at 2017-Oct-18 05:30 UTC. Time now 2017-Oct-18 05:41 UTC.
Position N 40°38' W 074°08'.

Length 40 m; draft 5.3 m.

Type: Tug. MMSI: 367141250.

Date/timePositionNaut miles runAvg speedWind from/ knotsBaromVisibWave heightAir tempDewpointWater temp
2017-Oct-18 05:30N 40°38' W 074°08'0 0.0
2017-Oct-18 05:00N 40°38' W 074°08'0 0.0
2017-Oct-18 04:30N 40°38' W 074°08'0 0.0
2017-Oct-18 04:00N 40°38' W 074°08'0 0.0
2017-Oct-18 03:30N 40°38' W 074°08'0 0.0
2017-Oct-18 03:01N 40°38' W 074°08'0 0.0
2017-Oct-18 02:30N 40°38' W 074°08'0 0.0
2017-Oct-18 02:00N 40°38' W 074°08'0 0.0
2017-Oct-18 01:31N 40°38' W 074°08'0 0.0
2017-Oct-18 01:01N 40°38' W 074°08'0 0.0
2017-Oct-18 00:30N 40°38' W 074°08'0 0.0
2017-Oct-18 00:01N 40°38' W 074°08'0 0.0
2017-Oct-17 23:30N 40°38' W 074°08'4 8.0
2017-Oct-17 23:00N 40°40' W 074°03'2 4.8
2017-Oct-17 22:30N 40°41' W 074°00'1 2.2
2017-Oct-17 22:00N 40°41' W 074°02'4 8.0
2017-Oct-17 21:30N 40°39' W 074°06'2 4.2
2017-Oct-17 21:00N 40°40' W 074°09'2 3.9
2017-Oct-17 20:30N 40°41' W 074°08'1 1.5
2017-Oct-17 20:00N 40°42' W 074°09'0 0.1
2017-Oct-17 19:30N 40°42' W 074°09'0 0.0
2017-Oct-17 19:00N 40°42' W 074°09'0 0.0
2017-Oct-17 18:30N 40°42' W 074°09'0 0.0
2017-Oct-17 18:00N 40°42' W 074°09'2 3.8
2017-Oct-17 17:30N 40°40' W 074°08'2 3.1
2017-Oct-17 16:59N 40°38' W 074°09'2 4.8
2017-Oct-17 16:30N 40°39' W 074°06'2 4.1
2017-Oct-17 16:00N 40°38' W 074°03'3 6.6
2017-Oct-17 15:30N 40°39' W 074°08'0 0.4
2017-Oct-17 15:00N 40°38' W 074°08'0 0.0
2017-Oct-17 14:30N 40°38' W 074°08'0 0.0
2017-Oct-17 14:01N 40°38' W 074°08'0 0.0
2017-Oct-17 13:31N 40°38' W 074°08'0 0.0
2017-Oct-17 13:01N 40°38' W 074°08'0 0.0
2017-Oct-17 12:30N 40°38' W 074°08'0 0.0
2017-Oct-17 12:00N 40°38' W 074°08'0 0.0
2017-Oct-17 11:30N 40°38' W 074°08'2 3.2
2017-Oct-17 11:00N 40°40' W 074°08'1 1.6
2017-Oct-17 10:30N 40°41' W 074°09'0 0.2
2017-Oct-17 10:00N 40°41' W 074°09'2 4.6
2017-Oct-17 09:30N 40°38' W 074°08'0 0.0
2017-Oct-17 09:00N 40°38' W 074°08'0 0.0
2017-Oct-17 08:30N 40°38' W 074°08'0 0.0
2017-Oct-17 08:00N 40°38' W 074°08'0 0.0
2017-Oct-17 07:00N 40°38' W 074°08'0 0.0
2017-Oct-17 06:31N 40°38' W 074°08'0 0.0
2017-Oct-17 06:00N 40°38' W 074°08'0 0.0
2017-Oct-17 05:30N 40°38' W 074°08'0 0.0
2017-Oct-17 05:00N 40°38' W 074°08'0 0.0
2017-Oct-17 04:30N 40°38' W 074°08'0 0.0
2017-Oct-17 04:00N 40°38' W 074°08'0 0.0
2017-Oct-17 03:30N 40°38' W 074°08'0 0.0
2017-Oct-17 03:01N 40°38' W 074°08'0 0.0
2017-Oct-17 02:30N 40°38' W 074°08'0 0.0
2017-Oct-17 02:00N 40°38' W 074°08'0 0.0
2017-Oct-17 01:30N 40°38' W 074°08'0 0.0
2017-Oct-17 01:00N 40°38' W 074°08'1 2.1
2017-Oct-17 00:30N 40°39' W 074°06'4 8.4
2017-Oct-17 00:01N 40°41' W 074°02'1 2.4
2017-Oct-16 23:30N 40°41' W 074°00'3 5.2
2017-Oct-16 23:01N 40°40' W 074°03'4 8.3
2017-Oct-16 22:30N 40°39' W 074°08'3 6.3
2017-Oct-16 22:00N 40°42' W 074°09'0 0.3
2017-Oct-16 21:30N 40°42' W 074°08'3 4.2
2017-Oct-16 20:44N 40°38' W 074°08'0 0.0
2017-Oct-16 20:21N 40°38' W 074°08'0 0.0
2017-Oct-16 20:00N 40°38' W 074°08'0 0.0
2017-Oct-16 19:30N 40°38' W 074°08'0 0.0
2017-Oct-16 19:00N 40°38' W 074°08'3 5.3
2017-Oct-16 18:30N 40°39' W 074°04'1 1.4
2017-Oct-16 18:01N 40°40' W 074°04'1 1.5
2017-Oct-16 17:30N 40°39' W 074°04'1 1.6
2017-Oct-16 17:00N 40°40' W 074°04'0 0.0
2017-Oct-16 16:31N 40°40' W 074°04'4 7.6
2017-Oct-16 16:00N 40°39' W 074°09'1 1.7
2017-Oct-16 15:28N 40°40' W 074°09'1 2.2
2017-Oct-16 15:00N 40°39' W 074°09'2 4.8
2017-Oct-16 14:30N 40°39' W 074°06'1 1.5
2017-Oct-16 13:30N 40°38' W 074°08'0 0.0
2017-Oct-16 13:00N 40°38' W 074°08'0 0.0
2017-Oct-16 12:30N 40°38' W 074°08'0 0.0
2017-Oct-16 12:00N 40°38' W 074°08'0 0.0
2017-Oct-16 11:30N 40°38' W 074°08'0 0.0
2017-Oct-16 11:01N 40°38' W 074°08'0 0.0
2017-Oct-16 10:30N 40°38' W 074°08'0 0.0
2017-Oct-16 10:00N 40°38' W 074°08'0 0.1
2017-Oct-16 09:27N 40°38' W 074°08'0 0.0
2017-Oct-16 09:00N 40°38' W 074°08'0 0.0
2017-Oct-16 08:27N 40°38' W 074°08'0 0.0
2017-Oct-16 08:00N 40°38' W 074°08'0 0.0
2017-Oct-16 07:30N 40°38' W 074°08'0 0.0
2017-Oct-16 07:00N 40°38' W 074°08'0 0.0
2017-Oct-16 06:30N 40°38' W 074°08'0 0.0
2017-Oct-16 06:00N 40°38' W 074°08'0 0.0
2017-Oct-16 05:27N 40°38' W 074°08'0 0.0
2017-Oct-16 05:00N 40°38' W 074°08'0 0.0
2017-Oct-16 04:30N 40°38' W 074°08'0 0.0
2017-Oct-16 04:00N 40°38' W 074°08'0 0.0
2017-Oct-16 03:31N 40°38' W 074°08'0 0.0
2017-Oct-16 03:00N 40°38' W 074°08'0 0.0
2017-Oct-16 02:30N 40°38' W 074°08'0 0.0
2017-Oct-16 02:00N 40°38' W 074°08'0 0.0
2017-Oct-16 01:30N 40°38' W 074°08'0 0.0
2017-Oct-16 01:00N 40°38' W 074°08'0 0.0
2017-Oct-16 00:30N 40°38' W 074°08'0 0.0
2017-Oct-16 00:00N 40°38' W 074°08'0 0.0
2017-Oct-15 23:30N 40°38' W 074°08'0 0.0
2017-Oct-15 23:00N 40°38' W 074°08'0 0.0
2017-Oct-15 22:30N 40°38' W 074°08'0 0.0
2017-Oct-15 22:00N 40°38' W 074°08'0 0.2
2017-Oct-15 21:30N 40°39' W 074°08'4 8.8
2017-Oct-15 21:01N 40°40' W 074°02'0 0.1
2017-Oct-15 20:30N 40°40' W 074°02'0 0.0
2017-Oct-15 19:54N 40°40' W 074°02'0 0.0
2017-Oct-15 19:30N 40°40' W 074°02'0 0.0
2017-Oct-15 19:00N 40°40' W 074°02'0 0.1
2017-Oct-15 18:30N 40°40' W 074°02'0 0.2
2017-Oct-15 18:00N 40°40' W 074°02'0 0.2
2017-Oct-15 17:30N 40°40' W 074°02'0 0.1
2017-Oct-15 17:00N 40°40' W 074°02'0 0.1
2017-Oct-15 16:30N 40°40' W 074°02'0 0.1
2017-Oct-15 16:00N 40°40' W 074°02'0 0.2
2017-Oct-15 15:28N 40°40' W 074°02'3 6.0
2017-Oct-15 15:00N 40°39' W 074°06'2 1.6
2017-Oct-15 13:58N 40°38' W 074°08'0 0.0
2017-Oct-15 13:28N 40°38' W 074°08'0 0.0
2017-Oct-15 12:58N 40°38' W 074°08'0 0.0
2017-Oct-15 12:28N 40°38' W 074°08'0 0.0
2017-Oct-15 11:58N 40°38' W 074°08'0 0.0
2017-Oct-15 11:28N 40°38' W 074°08'0 0.0
2017-Oct-15 10:58N 40°38' W 074°08'0 0.0
2017-Oct-15 10:25N 40°38' W 074°08'0 0.0
2017-Oct-15 09:58N 40°38' W 074°08'0 0.0
2017-Oct-15 09:28N 40°38' W 074°08'0 0.0
2017-Oct-15 08:58N 40°38' W 074°08'0 0.0
2017-Oct-15 08:28N 40°38' W 074°08'0 0.0
2017-Oct-15 07:58N 40°38' W 074°08'0 0.0
2017-Oct-15 07:28N 40°38' W 074°08'0 0.0
2017-Oct-15 06:55N 40°38' W 074°08'0 0.0
2017-Oct-15 06:28N 40°38' W 074°08'0 0.0
2017-Oct-15 05:58N 40°38' W 074°08'0 0.0
2017-Oct-15 05:28N 40°38' W 074°08'0 0.0
2017-Oct-15 04:58N 40°38' W 074°08'0 0.0
2017-Oct-15 04:28N 40°38' W 074°08'0 0.0
2017-Oct-15 03:58N 40°38' W 074°08'0 0.0
2017-Oct-15 03:28N 40°38' W 074°08'0 0.0
2017-Oct-15 02:58N 40°38' W 074°08'0 0.0
2017-Oct-15 02:25N 40°38' W 074°08'0 0.0
2017-Oct-15 01:58N 40°38' W 074°08'0 0.0
2017-Oct-15 01:25N 40°38' W 074°08'0 0.0
2017-Oct-15 00:58N 40°38' W 074°08'0 0.0
2017-Oct-15 00:22N 40°38' W 074°08'0 0.0
2017-Oct-14 23:55N 40°38' W 074°08'0 0.0
2017-Oct-14 23:28N 40°38' W 074°08'0 0.0
2017-Oct-14 22:58N 40°38' W 074°08'0 0.0
2017-Oct-14 22:28N 40°38' W 074°08'0 0.0
2017-Oct-14 21:58N 40°38' W 074°08'0 0.0
2017-Oct-14 21:28N 40°38' W 074°08'0 0.0
2017-Oct-14 20:49N 40°38' W 074°08'0 0.0
2017-Oct-14 20:28N 40°38' W 074°08'0 0.0
2017-Oct-14 19:58N 40°38' W 074°08'0 0.0
2017-Oct-14 19:25N 40°38' W 074°08'0 0.0
2017-Oct-14 18:55N 40°38' W 074°08'0 0.0
2017-Oct-14 18:28N 40°38' W 074°08'0 0.0
2017-Oct-14 17:58N 40°38' W 074°08'0 0.0
2017-Oct-14 17:28N 40°38' W 074°08'2 1.7
2017-Oct-14 16:30N 40°40' W 074°08'1 2.6
2017-Oct-14 16:00N 40°41' W 074°09'0 0.1
2017-Oct-14 15:28N 40°41' W 074°09'0 0.0
2017-Oct-14 14:59N 40°41' W 074°09'3 5.4
2017-Oct-14 14:30N 40°39' W 074°08'0 0.5
2017-Oct-14 13:59N 40°38' W 074°08'0 0.0
2017-Oct-14 13:29N 40°38' W 074°08'0 0.0
2017-Oct-14 12:59N 40°38' W 074°08'0 0.0
2017-Oct-14 12:29N 40°38' W 074°08'0 0.0
2017-Oct-14 11:56N 40°38' W 074°08'0 0.0
2017-Oct-14 11:29N 40°38' W 074°08'0 0.0
2017-Oct-14 10:59N 40°38' W 074°08'0 0.0
2017-Oct-14 10:29N 40°38' W 074°08'0 0.0
2017-Oct-14 09:59N 40°38' W 074°08'0 0.0
2017-Oct-14 09:29N 40°38' W 074°08'0 0.0
2017-Oct-14 08:59N 40°38' W 074°08'0 0.0
2017-Oct-14 08:29N 40°38' W 074°08'0 0.0
2017-Oct-14 07:59N 40°38' W 074°08'0 0.0
2017-Oct-14 07:29N 40°38' W 074°08'0 0.0
2017-Oct-14 06:56N 40°38' W 074°08'0 0.0
2017-Oct-14 06:29N 40°38' W 074°08'0 0.0
2017-Oct-14 05:59N 40°38' W 074°08'0 0.0
2017-Oct-14 05:29N 40°38' W 074°08'0 0.0
2017-Oct-14 04:59N 40°38' W 074°08'0 0.0
2017-Oct-14 04:29N 40°38' W 074°08'0 0.0
2017-Oct-14 03:59N 40°38' W 074°08'0 0.0
2017-Oct-14 03:29N 40°38' W 074°08'0 0.0
2017-Oct-14 02:56N 40°38' W 074°08'0 0.0
2017-Oct-14 02:23N 40°38' W 074°08'0 0.0
2017-Oct-14 01:59N 40°38' W 074°08'0 0.0
2017-Oct-14 01:29N 40°38' W 074°08'0 0.0
2017-Oct-14 00:59N 40°38' W 074°08'0 0.0
2017-Oct-14 00:29N 40°38' W 074°08'0 0.0
2017-Oct-13 23:59N 40°38' W 074°08'0 0.0
2017-Oct-13 23:29N 40°38' W 074°08'0 0.0
2017-Oct-13 22:59N 40°38' W 074°08'0 0.0
2017-Oct-13 22:29N 40°38' W 074°08'0 0.0
2017-Oct-13 21:59N 40°38' W 074°08'0 0.0
2017-Oct-13 21:29N 40°38' W 074°08'0 0.0
2017-Oct-13 20:56N 40°38' W 074°08'0 0.0
2017-Oct-13 20:26N 40°38' W 074°08'0 0.0
2017-Oct-13 19:59N 40°38' W 074°08'0 0.0
2017-Oct-13 19:29N 40°38' W 074°08'0 0.0
2017-Oct-13 18:50N 40°38' W 074°08'0 0.0
2017-Oct-13 18:26N 40°38' W 074°08'0 0.0
2017-Oct-13 17:59N 40°38' W 074°08'0 0.0
2017-Oct-13 17:29N 40°38' W 074°08'1 1.1
2017-Oct-13 17:00N 40°38' W 074°08'2 4.1
2017-Oct-13 16:30N 40°41' W 074°08'1 1.4
2017-Oct-13 15:59N 40°41' W 074°09'2 4.5
2017-Oct-13 15:29N 40°39' W 074°09'1 1.7
2017-Oct-13 15:00N 40°38' W 074°08'0 0.5
2017-Oct-13 14:30N 40°39' W 074°07'3 5.1
2017-Oct-13 14:00N 40°39' W 074°04'1 1.6
2017-Oct-13 13:27N 40°39' W 074°03'3 6.9
2017-Oct-13 13:00N 40°39' W 074°07'2 4.1
2017-Oct-13 12:30N 40°39' W 074°05'1 3.0
2017-Oct-13 12:00N 40°39' W 074°06'1 2.1
2017-Oct-13 11:30N 40°38' W 074°08'0 0.0
2017-Oct-13 10:56N 40°38' W 074°08'0 0.0
2017-Oct-13 10:29N 40°38' W 074°08'0 0.0
2017-Oct-13 10:00N 40°38' W 074°08'0 0.0
2017-Oct-13 09:27N 40°38' W 074°08'0 0.0
2017-Oct-13 09:00N 40°38' W 074°08'1 2.5
2017-Oct-13 08:30N 40°40' W 074°09'1 2.3
2017-Oct-13 08:00N 40°41' W 074°09'2 3.3
2017-Oct-13 07:30N 40°39' W 074°09'1 1.9
2017-Oct-13 07:00N 40°38' W 074°08'0 0.0
2017-Oct-13 06:25N 40°38' W 074°08'0 0.0
2017-Oct-13 05:58N 40°38' W 074°08'0 0.0
2017-Oct-13 05:28N 40°38' W 074°08'0 0.0
2017-Oct-13 04:58N 40°38' W 074°08'0 0.0
2017-Oct-13 04:25N 40°38' W 074°08'0 0.0
2017-Oct-13 03:58N 40°38' W 074°08'0 0.0
2017-Oct-13 03:28N 40°38' W 074°08'0 0.0
2017-Oct-13 02:55N 40°38' W 074°08'2 4.9
2017-Oct-13 02:30N 40°39' W 074°05'2 3.2
2017-Oct-13 01:57N 40°39' W 074°03'0 0.0
2017-Oct-13 01:26N 40°39' W 074°03'0 0.0
2017-Oct-13 00:57N 40°39' W 074°03'0 0.0
2017-Oct-13 00:30N 40°39' W 074°03'0 0.0
2017-Oct-12 23:57N 40°39' W 074°03'0 0.0
2017-Oct-12 23:30N 40°39' W 074°03'0 0.0
2017-Oct-12 22:59N 40°39' W 074°03'0 0.0
2017-Oct-12 22:30N 40°39' W 074°03'0 0.1
2017-Oct-12 21:59N 40°39' W 074°03'0 0.1
2017-Oct-12 21:30N 40°40' W 074°03'1 2.5
2017-Oct-12 21:00N 40°40' W 074°02'1 3.0
2017-Oct-12 20:30N 40°41' W 074°00'3 5.6
2017-Oct-12 20:00N 40°39' W 074°03'4 7.1
2017-Oct-12 19:30N 40°39' W 074°08'2 4.1
2017-Oct-12 19:00N 40°41' W 074°08'1 2.7
2017-Oct-12 18:29N 40°42' W 074°09'1 2.9
2017-Oct-12 18:00N 40°41' W 074°08'3 5.9
2017-Oct-12 17:30N 40°39' W 074°05'2 4.4
2017-Oct-12 17:00N 40°40' W 074°02'0 0.0
2017-Oct-12 16:30N 40°40' W 074°02'0 0.2
2017-Oct-12 16:00N 40°40' W 074°02'0 0.1
2017-Oct-12 15:30N 40°40' W 074°02'0 0.0
2017-Oct-12 15:00N 40°40' W 074°02'0 0.2
2017-Oct-12 14:30N 40°40' W 074°02'0 0.1
2017-Oct-12 13:57N 40°40' W 074°02'0 0.1
2017-Oct-12 13:30N 40°40' W 074°02'0 0.0
2017-Oct-12 13:00N 40°40' W 074°02'0 0.0
2017-Oct-12 12:30N 40°40' W 074°02'0 0.0
2017-Oct-12 11:54N 40°40' W 074°02'0 0.0
2017-Oct-12 11:30N 40°40' W 074°02'3 6.1
2017-Oct-12 11:00N 40°39' W 074°06'3 5.8
2017-Oct-12 10:30N 40°41' W 074°09'1 2.5
2017-Oct-12 10:00N 40°40' W 074°09'1 2.4
2017-Oct-12 09:29N 40°39' W 074°08'3 5.2
2017-Oct-12 09:00N 40°39' W 074°04'1 1.9
2017-Oct-12 08:30N 40°38' W 074°03'1 2.9
2017-Oct-12 08:00N 40°39' W 074°05'2 4.6
2017-Oct-12 07:30N 40°39' W 074°08'0 0.1
2017-Oct-12 07:00N 40°38' W 074°08'0 0.0
2017-Oct-12 06:27N 40°38' W 074°08'0 0.0
2017-Oct-12 05:57N 40°38' W 074°08'0 0.0
2017-Oct-12 05:30N 40°38' W 074°08'0 0.0
2017-Oct-12 05:00N 40°38' W 074°08'0 0.2
2017-Oct-12 04:30N 40°39' W 074°08'0 0.2
2017-Oct-12 04:00N 40°38' W 074°08'0 0.0
2017-Oct-12 03:30N 40°38' W 074°08'0 0.0
2017-Oct-12 03:00N 40°38' W 074°08'0 0.0
2017-Oct-12 02:30N 40°38' W 074°08'0 0.0
2017-Oct-12 02:00N 40°38' W 074°08'0 0.0
2017-Oct-12 01:30N 40°38' W 074°08'0 0.0
2017-Oct-12 01:00N 40°38' W 074°08'0 0.0
2017-Oct-12 00:30N 40°38' W 074°08'0 0.0
2017-Oct-12 00:00N 40°38' W 074°08'0 0.0
2017-Oct-11 23:30N 40°38' W 074°08'0 0.0
2017-Oct-11 23:00N 40°38' W 074°08'0 0.0
2017-Oct-11 22:30N 40°38' W 074°08'0 0.0
2017-Oct-11 22:00N 40°38' W 074°08'1 2.9
2017-Oct-11 21:30N 40°40' W 074°09'1 1.0
2017-Oct-11 20:59N 40°40' W 074°08'0 0.7
2017-Oct-11 20:30N 40°41' W 074°08'2 4.3
2017-Oct-11 20:00N 40°39' W 074°07'2 4.7
2017-Oct-11 19:30N 40°40' W 074°05'1 0.9
2017-Oct-11 18:57N 40°40' W 074°04'0 0.3
2017-Oct-11 18:30N 40°40' W 074°04'1 1.8
2017-Oct-11 18:00N 40°40' W 074°03'0 0.6
2017-Oct-11 17:30N 40°40' W 074°03'0 0.0
2017-Oct-11 17:00N 40°40' W 074°03'4 0.2
2017-Oct-11 00:00N 40°38' W 074°08'1 2.2
2017-Oct-10 23:30N 40°39' W 074°09'2 3.8
2017-Oct-10 23:00N 40°41' W 074°08'0 0.8
2017-Oct-10 22:30N 40°41' W 074°09'1 2.1
2017-Oct-10 22:00N 40°42' W 074°09'0 0.2
2017-Oct-10 21:30N 40°42' W 074°09'2 4.3
2017-Oct-10 21:00N 40°40' W 074°08'2 3.8
2017-Oct-10 20:30N 40°39' W 074°06'3 5.8
2017-Oct-10 20:00N 40°40' W 074°03'2 4.4
2017-Oct-10 19:30N 40°41' W 074°00'1 2.7
2017-Oct-10 19:00N 40°40' W 074°02'0 0.7
2017-Oct-10 18:29N 40°40' W 074°02'0 0.2
2017-Oct-10 17:59N 40°40' W 074°02'0 0.0
2017-Oct-10 17:29N 40°40' W 074°02'0 0.0
2017-Oct-10 16:59N 40°40' W 074°02'0 0.1
2017-Oct-10 16:29N 40°40' W 074°02'0 0.1
2017-Oct-10 15:59N 40°40' W 074°02'0 0.0
2017-Oct-10 15:29N 40°40' W 074°02'0 0.0
2017-Oct-10 14:59N 40°40' W 074°02'0 0.1
2017-Oct-10 13:59N 40°40' W 074°02'0 0.0
2017-Oct-10 13:30N 40°40' W 074°02'1 1.8
2017-Oct-10 13:01N 40°40' W 074°03'4 7.9
2017-Oct-10 12:30N 40°38' W 074°08'0 0.0
2017-Oct-10 12:00N 40°38' W 074°08'0 0.0
2017-Oct-10 11:30N 40°38' W 074°08'0 0.0
2017-Oct-10 11:00N 40°38' W 074°08'0 0.0
2017-Oct-10 10:30N 40°38' W 074°08'2 3.6
2017-Oct-10 10:00N 40°40' W 074°08'2 3.5
2017-Oct-10 09:30N 40°39' W 074°09'3 6.6
2017-Oct-10 09:00N 40°39' W 074°04'3 6.0
2017-Oct-10 08:30N 40°36' W 074°02'3 6.7
2017-Oct-10 08:00N 40°39' W 074°05'2 3.7
2017-Oct-10 07:30N 40°38' W 074°08'0 0.0
2017-Oct-10 06:59N 40°38' W 074°08'0 0.0
2017-Oct-10 06:29N 40°38' W 074°08'0 0.0
2017-Oct-10 05:59N 40°38' W 074°08'0 0.0
2017-Oct-10 05:29N 40°38' W 074°08'0 0.0
2017-Oct-10 04:59N 40°38' W 074°08'0 0.0
2017-Oct-10 04:29N 40°38' W 074°08'0 0.0
2017-Oct-10 04:01N 40°38' W 074°08'0 0.0
2017-Oct-10 03:31N 40°38' W 074°08'0 0.0
2017-Oct-10 03:00N 40°38' W 074°08'0 0.0
2017-Oct-10 02:30N 40°38' W 074°08'0 0.0
2017-Oct-10 02:01N 40°38' W 074°08'0 0.0
2017-Oct-10 01:31N 40°38' W 074°08'0 0.0
2017-Oct-10 01:01N 40°38' W 074°08'0 0.0
2017-Oct-10 00:30N 40°38' W 074°08'0 0.0
2017-Oct-10 00:01N 40°38' W 074°08'0 0.0
2017-Oct-09 23:30N 40°38' W 074°08'0 0.0
2017-Oct-09 23:00N 40°38' W 074°08'0 0.0
2017-Oct-09 22:31N 40°38' W 074°08'0 0.0
2017-Oct-09 22:01N 40°38' W 074°08'1 1.4
2017-Oct-09 21:31N 40°39' W 074°09'2 4.5
2017-Oct-09 21:01N 40°41' W 074°09'2 4.4
2017-Oct-09 20:30N 40°39' W 074°09'3 5.7
2017-Oct-09 20:01N 40°39' W 074°05'2 3.8
2017-Oct-09 19:31N 40°39' W 074°08'0 0.3
2017-Oct-09 19:00N 40°38' W 074°08'0 0.0
2017-Oct-09 18:30N 40°38' W 074°08'0 0.0
2017-Oct-09 18:00N 40°38' W 074°08'0 0.0
2017-Oct-09 17:30N 40°38' W 074°08'0 0.0
2017-Oct-09 17:00N 40°38' W 074°08'0 0.0
2017-Oct-09 16:30N 40°38' W 074°08'0 0.0
2017-Oct-09 16:00N 40°38' W 074°08'0 0.0
2017-Oct-09 15:30N 40°38' W 074°08'0 0.0
2017-Oct-09 15:00N 40°38' W 074°08'0 0.0
2017-Oct-09 14:30N 40°38' W 074°08'0 0.0
2017-Oct-09 14:00N 40°38' W 074°08'0 0.0
2017-Oct-09 13:30N 40°38' W 074°08'0 0.0
2017-Oct-09 13:00N 40°38' W 074°08'0 0.0
2017-Oct-09 12:08N 40°38' W 074°08'0 0.0
2017-Oct-09 11:59N 40°38' W 074°08'0 0.0
2017-Oct-09 11:29N 40°38' W 074°08'0 0.0
2017-Oct-09 10:35N 40°38' W 074°08'0 0.0
2017-Oct-09 10:11N 40°38' W 074°08'0 0.0
2017-Oct-09 09:59N 40°38' W 074°08'0 0.0
2017-Oct-09 09:29N 40°38' W 074°08'0 0.0
2017-Oct-09 08:05N 40°38' W 074°08'0 0.0
2017-Oct-09 07:53N 40°38' W 074°08'0 0.0
2017-Oct-09 07:29N 40°38' W 074°08'0 0.0
2017-Oct-09 06:59N 40°38' W 074°08'0 0.0
2017-Oct-09 06:17N 40°38' W 074°08'0 0.0
2017-Oct-09 05:59N 40°38' W 074°08'0 0.0
2017-Oct-09 04:53N 40°38' W 074°08'0 0.0
2017-Oct-09 03:17N 40°38' W 074°08'0 0.0
2017-Oct-09 02:47N 40°38' W 074°08'0 0.0
2017-Oct-09 02:29N 40°38' W 074°08'0 0.0
2017-Oct-09 01:53N 40°38' W 074°08'0 0.0
2017-Oct-09 01:29N 40°38' W 074°08'0 0.0
2017-Oct-09 00:53N 40°38' W 074°08'0 0.0
2017-Oct-09 00:29N 40°38' W 074°08'0 0.0
2017-Oct-08 23:59N 40°38' W 074°08'0 0.0
2017-Oct-08 22:41N 40°38' W 074°08'0 0.0
2017-Oct-08 22:23N 40°38' W 074°08'0 0.0
2017-Oct-08 21:59N 40°38' W 074°08'0 0.0
2017-Oct-08 21:26N 40°38' W 074°08'0 0.0
2017-Oct-08 20:56N 40°38' W 074°08'0 0.0
2017-Oct-08 19:35N 40°38' W 074°08'0 0.0
2017-Oct-08 19:20N 40°38' W 074°08'0 0.0
2017-Oct-08 18:41N 40°38' W 074°08'0 0.0
2017-Oct-08 18:23N 40°38' W 074°08'0 0.0
2017-Oct-08 15:50N 40°38' W 074°08'0 0.0
2017-Oct-08 15:26N 40°38' W 074°08'0 0.0
2017-Oct-08 14:56N 40°38' W 074°08'0 0.0
2017-Oct-08 14:26N 40°38' W 074°08'0 0.0
2017-Oct-08 13:56N 40°38' W 074°08'0 0.0
2017-Oct-08 13:20N 40°38' W 074°08'0 0.0
2017-Oct-08 12:50N 40°38' W 074°08'0 0.0
2017-Oct-08 07:50N 40°38' W 074°08'  
Track history (hours):
 
Tides and Currents Weather Stations Pressure Air Temp Water Temp Dewpoint Dewpoint Depression Visibility Wind Speed Wind Dir Waves Ship Positions

Jennifer Turecamo

Owner: MORAN TOWING CORPORATION, New Canaan, CT. More information available from US FCC via Universal Licensing System and Coast Guard Vessel Documentation Center.

Last reported at 2017-Oct-18 05:30 UTC. Time now 2017-Oct-18 05:41 UTC.
Position N 40°38' W 074°08'.

Length 40 m; draft 5.3 m.

Type: Tug. MMSI: 367141250.

Date/timePositionNaut miles runAvg speedWind from/ knotsBaromVisibWave heightAir tempDewpointWater temp
2017-Oct-18 05:30N 40°38' W 074°08'0 0.0
2017-Oct-18 05:00N 40°38' W 074°08'0 0.0
2017-Oct-18 04:30N 40°38' W 074°08'0 0.0
2017-Oct-18 04:00N 40°38' W 074°08'0 0.0
2017-Oct-18 03:30N 40°38' W 074°08'0 0.0
2017-Oct-18 03:01N 40°38' W 074°08'0 0.0
2017-Oct-18 02:30N 40°38' W 074°08'0 0.0
2017-Oct-18 02:00N 40°38' W 074°08'0 0.0
2017-Oct-18 01:31N 40°38' W 074°08'0 0.0
2017-Oct-18 01:01N 40°38' W 074°08'0 0.0
2017-Oct-18 00:30N 40°38' W 074°08'0 0.0
2017-Oct-18 00:01N 40°38' W 074°08'0 0.0
2017-Oct-17 23:30N 40°38' W 074°08'4 8.0
2017-Oct-17 23:00N 40°40' W 074°03'2 4.8
2017-Oct-17 22:30N 40°41' W 074°00'1 2.2
2017-Oct-17 22:00N 40°41' W 074°02'4 8.0
2017-Oct-17 21:30N 40°39' W 074°06'2 4.2
2017-Oct-17 21:00N 40°40' W 074°09'2 3.9
2017-Oct-17 20:30N 40°41' W 074°08'1 1.5
2017-Oct-17 20:00N 40°42' W 074°09'0 0.1
2017-Oct-17 19:30N 40°42' W 074°09'0 0.0
2017-Oct-17 19:00N 40°42' W 074°09'0 0.0
2017-Oct-17 18:30N 40°42' W 074°09'0 0.0
2017-Oct-17 18:00N 40°42' W 074°09'2 3.8
2017-Oct-17 17:30N 40°40' W 074°08'2 3.1
2017-Oct-17 16:59N 40°38' W 074°09'2 4.8
2017-Oct-17 16:30N 40°39' W 074°06'2 4.1
2017-Oct-17 16:00N 40°38' W 074°03'3 6.6
2017-Oct-17 15:30N 40°39' W 074°08'0 0.4
2017-Oct-17 15:00N 40°38' W 074°08'0 0.0
2017-Oct-17 14:30N 40°38' W 074°08'0 0.0
2017-Oct-17 14:01N 40°38' W 074°08'0 0.0
2017-Oct-17 13:31N 40°38' W 074°08'0 0.0
2017-Oct-17 13:01N 40°38' W 074°08'0 0.0
2017-Oct-17 12:30N 40°38' W 074°08'0 0.0
2017-Oct-17 12:00N 40°38' W 074°08'0 0.0
2017-Oct-17 11:30N 40°38' W 074°08'2 3.2
2017-Oct-17 11:00N 40°40' W 074°08'1 1.6
2017-Oct-17 10:30N 40°41' W 074°09'0 0.2
2017-Oct-17 10:00N 40°41' W 074°09'2 4.6
2017-Oct-17 09:30N 40°38' W 074°08'0 0.0
2017-Oct-17 09:00N 40°38' W 074°08'0 0.0
2017-Oct-17 08:30N 40°38' W 074°08'0 0.0
2017-Oct-17 08:00N 40°38' W 074°08'0 0.0
2017-Oct-17 07:00N 40°38' W 074°08'0 0.0
2017-Oct-17 06:31N 40°38' W 074°08'0 0.0
2017-Oct-17 06:00N 40°38' W 074°08'0 0.0
2017-Oct-17 05:30N 40°38' W 074°08'0 0.0
2017-Oct-17 05:00N 40°38' W 074°08'0 0.0
2017-Oct-17 04:30N 40°38' W 074°08'0 0.0
2017-Oct-17 04:00N 40°38' W 074°08'0 0.0
2017-Oct-17 03:30N 40°38' W 074°08'0 0.0
2017-Oct-17 03:01N 40°38' W 074°08'0 0.0
2017-Oct-17 02:30N 40°38' W 074°08'0 0.0
2017-Oct-17 02:00N 40°38' W 074°08'0 0.0
2017-Oct-17 01:30N 40°38' W 074°08'0 0.0
2017-Oct-17 01:00N 40°38' W 074°08'1 2.1
2017-Oct-17 00:30N 40°39' W 074°06'4 8.4
2017-Oct-17 00:01N 40°41' W 074°02'1 2.4
2017-Oct-16 23:30N 40°41' W 074°00'3 5.2
2017-Oct-16 23:01N 40°40' W 074°03'4 8.3
2017-Oct-16 22:30N 40°39' W 074°08'3 6.3
2017-Oct-16 22:00N 40°42' W 074°09'0 0.3
2017-Oct-16 21:30N 40°42' W 074°08'3 4.2
2017-Oct-16 20:44N 40°38' W 074°08'0 0.0
2017-Oct-16 20:21N 40°38' W 074°08'0 0.0
2017-Oct-16 20:00N 40°38' W 074°08'0 0.0
2017-Oct-16 19:30N 40°38' W 074°08'0 0.0
2017-Oct-16 19:00N 40°38' W 074°08'3 5.3
2017-Oct-16 18:30N 40°39' W 074°04'1 1.4
2017-Oct-16 18:01N 40°40' W 074°04'1 1.5
2017-Oct-16 17:30N 40°39' W 074°04'1 1.6
2017-Oct-16 17:00N 40°40' W 074°04'0 0.0
2017-Oct-16 16:31N 40°40' W 074°04'4 7.6
2017-Oct-16 16:00N 40°39' W 074°09'1 1.7
2017-Oct-16 15:28N 40°40' W 074°09'1 2.2
2017-Oct-16 15:00N 40°39' W 074°09'2 4.8
2017-Oct-16 14:30N 40°39' W 074°06'1 1.5
2017-Oct-16 13:30N 40°38' W 074°08'0 0.0
2017-Oct-16 13:00N 40°38' W 074°08'0 0.0
2017-Oct-16 12:30N 40°38' W 074°08'0 0.0
2017-Oct-16 12:00N 40°38' W 074°08'0 0.0
2017-Oct-16 11:30N 40°38' W 074°08'0 0.0
2017-Oct-16 11:01N 40°38' W 074°08'0 0.0
2017-Oct-16 10:30N 40°38' W 074°08'0 0.0
2017-Oct-16 10:00N 40°38' W 074°08'0 0.1
2017-Oct-16 09:27N 40°38' W 074°08'0 0.0
2017-Oct-16 09:00N 40°38' W 074°08'0 0.0
2017-Oct-16 08:27N 40°38' W 074°08'0 0.0
2017-Oct-16 08:00N 40°38' W 074°08'0 0.0
2017-Oct-16 07:30N 40°38' W 074°08'0 0.0
2017-Oct-16 07:00N 40°38' W 074°08'0 0.0
2017-Oct-16 06:30N 40°38' W 074°08'0 0.0
2017-Oct-16 06:00N 40°38' W 074°08'0 0.0
2017-Oct-16 05:27N 40°38' W 074°08'0 0.0
2017-Oct-16 05:00N 40°38' W 074°08'0 0.0
2017-Oct-16 04:30N 40°38' W 074°08'0 0.0
2017-Oct-16 04:00N 40°38' W 074°08'0 0.0
2017-Oct-16 03:31N 40°38' W 074°08'0 0.0
2017-Oct-16 03:00N 40°38' W 074°08'0 0.0
2017-Oct-16 02:30N 40°38' W 074°08'0 0.0
2017-Oct-16 02:00N 40°38' W 074°08'0 0.0
2017-Oct-16 01:30N 40°38' W 074°08'0 0.0
2017-Oct-16 01:00N 40°38' W 074°08'0 0.0
2017-Oct-16 00:30N 40°38' W 074°08'0 0.0
2017-Oct-16 00:00N 40°38' W 074°08'0 0.0
2017-Oct-15 23:30N 40°38' W 074°08'0 0.0
2017-Oct-15 23:00N 40°38' W 074°08'0 0.0
2017-Oct-15 22:30N 40°38' W 074°08'0 0.0
2017-Oct-15 22:00N 40°38' W 074°08'0 0.2
2017-Oct-15 21:30N 40°39' W 074°08'4 8.8
2017-Oct-15 21:01N 40°40' W 074°02'0 0.1
2017-Oct-15 20:30N 40°40' W 074°02'0 0.0
2017-Oct-15 19:54N 40°40' W 074°02'0 0.0
2017-Oct-15 19:30N 40°40' W 074°02'0 0.0
2017-Oct-15 19:00N 40°40' W 074°02'0 0.1
2017-Oct-15 18:30N 40°40' W 074°02'0 0.2
2017-Oct-15 18:00N 40°40' W 074°02'0 0.2
2017-Oct-15 17:30N 40°40' W 074°02'0 0.1
2017-Oct-15 17:00N 40°40' W 074°02'0 0.1
2017-Oct-15 16:30N 40°40' W 074°02'0 0.1
2017-Oct-15 16:00N 40°40' W 074°02'0 0.2
2017-Oct-15 15:28N 40°40' W 074°02'3 6.0
2017-Oct-15 15:00N 40°39' W 074°06'2 1.6
2017-Oct-15 13:58N 40°38' W 074°08'0 0.0
2017-Oct-15 13:28N 40°38' W 074°08'0 0.0
2017-Oct-15 12:58N 40°38' W 074°08'0 0.0
2017-Oct-15 12:28N 40°38' W 074°08'0 0.0
2017-Oct-15 11:58N 40°38' W 074°08'0 0.0
2017-Oct-15 11:28N 40°38' W 074°08'0 0.0
2017-Oct-15 10:58N 40°38' W 074°08'0 0.0
2017-Oct-15 10:25N 40°38' W 074°08'0 0.0
2017-Oct-15 09:58N 40°38' W 074°08'0 0.0
2017-Oct-15 09:28N 40°38' W 074°08'0 0.0
2017-Oct-15 08:58N 40°38' W 074°08'0 0.0
2017-Oct-15 08:28N 40°38' W 074°08'0 0.0
2017-Oct-15 07:58N 40°38' W 074°08'0 0.0
2017-Oct-15 07:28N 40°38' W 074°08'0 0.0
2017-Oct-15 06:55N 40°38' W 074°08'0 0.0
2017-Oct-15 06:28N 40°38' W 074°08'0 0.0
2017-Oct-15 05:58N 40°38' W 074°08'0 0.0
2017-Oct-15 05:28N 40°38' W 074°08'0 0.0
2017-Oct-15 04:58N 40°38' W 074°08'0 0.0
2017-Oct-15 04:28N 40°38' W 074°08'0 0.0
2017-Oct-15 03:58N 40°38' W 074°08'0 0.0
2017-Oct-15 03:28N 40°38' W 074°08'0 0.0
2017-Oct-15 02:58N 40°38' W 074°08'0 0.0
2017-Oct-15 02:25N 40°38' W 074°08'0 0.0
2017-Oct-15 01:58N 40°38' W 074°08'0 0.0
2017-Oct-15 01:25N 40°38' W 074°08'0 0.0
2017-Oct-15 00:58N 40°38' W 074°08'0 0.0
2017-Oct-15 00:22N 40°38' W 074°08'0 0.0
2017-Oct-14 23:55N 40°38' W 074°08'0 0.0
2017-Oct-14 23:28N 40°38' W 074°08'0 0.0
2017-Oct-14 22:58N 40°38' W 074°08'0 0.0
2017-Oct-14 22:28N 40°38' W 074°08'0 0.0
2017-Oct-14 21:58N 40°38' W 074°08'0 0.0
2017-Oct-14 21:28N 40°38' W 074°08'0 0.0
2017-Oct-14 20:49N 40°38' W 074°08'0 0.0
2017-Oct-14 20:28N 40°38' W 074°08'0 0.0
2017-Oct-14 19:58N 40°38' W 074°08'0 0.0
2017-Oct-14 19:25N 40°38' W 074°08'0 0.0
2017-Oct-14 18:55N 40°38' W 074°08'0 0.0
2017-Oct-14 18:28N 40°38' W 074°08'0 0.0
2017-Oct-14 17:58N 40°38' W 074°08'0 0.0
2017-Oct-14 17:28N 40°38' W 074°08'2 1.7
2017-Oct-14 16:30N 40°40' W 074°08'1 2.6
2017-Oct-14 16:00N 40°41' W 074°09'0 0.1
2017-Oct-14 15:28N 40°41' W 074°09'0 0.0
2017-Oct-14 14:59N 40°41' W 074°09'3 5.4
2017-Oct-14 14:30N 40°39' W 074°08'0 0.5
2017-Oct-14 13:59N 40°38' W 074°08'0 0.0
2017-Oct-14 13:29N 40°38' W 074°08'0 0.0
2017-Oct-14 12:59N 40°38' W 074°08'0 0.0
2017-Oct-14 12:29N 40°38' W 074°08'0 0.0
2017-Oct-14 11:56N 40°38' W 074°08'0 0.0
2017-Oct-14 11:29N 40°38' W 074°08'0 0.0
2017-Oct-14 10:59N 40°38' W 074°08'0 0.0
2017-Oct-14 10:29N 40°38' W 074°08'0 0.0
2017-Oct-14 09:59N 40°38' W 074°08'0 0.0
2017-Oct-14 09:29N 40°38' W 074°08'0 0.0
2017-Oct-14 08:59N 40°38' W 074°08'0 0.0
2017-Oct-14 08:29N 40°38' W 074°08'0 0.0
2017-Oct-14 07:59N 40°38' W 074°08'0 0.0
2017-Oct-14 07:29N 40°38' W 074°08'0 0.0
2017-Oct-14 06:56N 40°38' W 074°08'0 0.0
2017-Oct-14 06:29N 40°38' W 074°08'0 0.0
2017-Oct-14 05:59N 40°38' W 074°08'0 0.0
2017-Oct-14 05:29N 40°38' W 074°08'0 0.0
2017-Oct-14 04:59N 40°38' W 074°08'0 0.0
2017-Oct-14 04:29N 40°38' W 074°08'0 0.0
2017-Oct-14 03:59N 40°38' W 074°08'0 0.0
2017-Oct-14 03:29N 40°38' W 074°08'0 0.0
2017-Oct-14 02:56N 40°38' W 074°08'0 0.0
2017-Oct-14 02:23N 40°38' W 074°08'0 0.0
2017-Oct-14 01:59N 40°38' W 074°08'0 0.0
2017-Oct-14 01:29N 40°38' W 074°08'0 0.0
2017-Oct-14 00:59N 40°38' W 074°08'0 0.0
2017-Oct-14 00:29N 40°38' W 074°08'0 0.0
2017-Oct-13 23:59N 40°38' W 074°08'0 0.0
2017-Oct-13 23:29N 40°38' W 074°08'0 0.0
2017-Oct-13 22:59N 40°38' W 074°08'0 0.0
2017-Oct-13 22:29N 40°38' W 074°08'0 0.0
2017-Oct-13 21:59N 40°38' W 074°08'0 0.0
2017-Oct-13 21:29N 40°38' W 074°08'0 0.0
2017-Oct-13 20:56N 40°38' W 074°08'0 0.0
2017-Oct-13 20:26N 40°38' W 074°08'0 0.0
2017-Oct-13 19:59N 40°38' W 074°08'0 0.0
2017-Oct-13 19:29N 40°38' W 074°08'0 0.0
2017-Oct-13 18:50N 40°38' W 074°08'0 0.0
2017-Oct-13 18:26N 40°38' W 074°08'0 0.0
2017-Oct-13 17:59N 40°38' W 074°08'0 0.0
2017-Oct-13 17:29N 40°38' W 074°08'1 1.1
2017-Oct-13 17:00N 40°38' W 074°08'2 4.1
2017-Oct-13 16:30N 40°41' W 074°08'1 1.4
2017-Oct-13 15:59N 40°41' W 074°09'2 4.5
2017-Oct-13 15:29N 40°39' W 074°09'1 1.7
2017-Oct-13 15:00N 40°38' W 074°08'0 0.5
2017-Oct-13 14:30N 40°39' W 074°07'3 5.1
2017-Oct-13 14:00N 40°39' W 074°04'1 1.6
2017-Oct-13 13:27N 40°39' W 074°03'3 6.9
2017-Oct-13 13:00N 40°39' W 074°07'2 4.1
2017-Oct-13 12:30N 40°39' W 074°05'1 3.0
2017-Oct-13 12:00N 40°39' W 074°06'1 2.1
2017-Oct-13 11:30N 40°38' W 074°08'0 0.0
2017-Oct-13 10:56N 40°38' W 074°08'0 0.0
2017-Oct-13 10:29N 40°38' W 074°08'0 0.0
2017-Oct-13 10:00N 40°38' W 074°08'0 0.0
2017-Oct-13 09:27N 40°38' W 074°08'0 0.0
2017-Oct-13 09:00N 40°38' W 074°08'1 2.5
2017-Oct-13 08:30N 40°40' W 074°09'1 2.3
2017-Oct-13 08:00N 40°41' W 074°09'2 3.3
2017-Oct-13 07:30N 40°39' W 074°09'1 1.9
2017-Oct-13 07:00N 40°38' W 074°08'0 0.0
2017-Oct-13 06:25N 40°38' W 074°08'0 0.0
2017-Oct-13 05:58N 40°38' W 074°08'0 0.0
2017-Oct-13 05:28N 40°38' W 074°08'0 0.0
2017-Oct-13 04:58N 40°38' W 074°08'0 0.0
2017-Oct-13 04:25N 40°38' W 074°08'0 0.0
2017-Oct-13 03:58N 40°38' W 074°08'0 0.0
2017-Oct-13 03:28N 40°38' W 074°08'0 0.0
2017-Oct-13 02:55N 40°38' W 074°08'2 4.9
2017-Oct-13 02:30N 40°39' W 074°05'2 3.2
2017-Oct-13 01:57N 40°39' W 074°03'0 0.0
2017-Oct-13 01:26N 40°39' W 074°03'0 0.0
2017-Oct-13 00:57N 40°39' W 074°03'0 0.0
2017-Oct-13 00:30N 40°39' W 074°03'0 0.0
2017-Oct-12 23:57N 40°39' W 074°03'0 0.0
2017-Oct-12 23:30N 40°39' W 074°03'0 0.0
2017-Oct-12 22:59N 40°39' W 074°03'0 0.0
2017-Oct-12 22:30N 40°39' W 074°03'0 0.1
2017-Oct-12 21:59N 40°39' W 074°03'0 0.1
2017-Oct-12 21:30N 40°40' W 074°03'1 2.5
2017-Oct-12 21:00N 40°40' W 074°02'1 3.0
2017-Oct-12 20:30N 40°41' W 074°00'3 5.6
2017-Oct-12 20:00N 40°39' W 074°03'4 7.1
2017-Oct-12 19:30N 40°39' W 074°08'2 4.1
2017-Oct-12 19:00N 40°41' W 074°08'1 2.7
2017-Oct-12 18:29N 40°42' W 074°09'1 2.9
2017-Oct-12 18:00N 40°41' W 074°08'3 5.9
2017-Oct-12 17:30N 40°39' W 074°05'2 4.4
2017-Oct-12 17:00N 40°40' W 074°02'0 0.0
2017-Oct-12 16:30N 40°40' W 074°02'0 0.2
2017-Oct-12 16:00N 40°40' W 074°02'0 0.1
2017-Oct-12 15:30N 40°40' W 074°02'0 0.0
2017-Oct-12 15:00N 40°40' W 074°02'0 0.2
2017-Oct-12 14:30N 40°40' W 074°02'0 0.1
2017-Oct-12 13:57N 40°40' W 074°02'0 0.1
2017-Oct-12 13:30N 40°40' W 074°02'0 0.0
2017-Oct-12 13:00N 40°40' W 074°02'0 0.0
2017-Oct-12 12:30N 40°40' W 074°02'0 0.0
2017-Oct-12 11:54N 40°40' W 074°02'0 0.0
2017-Oct-12 11:30N 40°40' W 074°02'3 6.1
2017-Oct-12 11:00N 40°39' W 074°06'3 5.8
2017-Oct-12 10:30N 40°41' W 074°09'1 2.5
2017-Oct-12 10:00N 40°40' W 074°09'1 2.4
2017-Oct-12 09:29N 40°39' W 074°08'3 5.2
2017-Oct-12 09:00N 40°39' W 074°04'1 1.9
2017-Oct-12 08:30N 40°38' W 074°03'1 2.9
2017-Oct-12 08:00N 40°39' W 074°05'2 4.6
2017-Oct-12 07:30N 40°39' W 074°08'0 0.1
2017-Oct-12 07:00N 40°38' W 074°08'0 0.0
2017-Oct-12 06:27N 40°38' W 074°08'0 0.0
2017-Oct-12 05:57N 40°38' W 074°08'0 0.0
2017-Oct-12 05:30N 40°38' W 074°08'0 0.0
2017-Oct-12 05:00N 40°38' W 074°08'0 0.2
2017-Oct-12 04:30N 40°39' W 074°08'0 0.2
2017-Oct-12 04:00N 40°38' W 074°08'0 0.0
2017-Oct-12 03:30N 40°38' W 074°08'0 0.0
2017-Oct-12 03:00N 40°38' W 074°08'0 0.0
2017-Oct-12 02:30N 40°38' W 074°08'0 0.0
2017-Oct-12 02:00N 40°38' W 074°08'0 0.0
2017-Oct-12 01:30N 40°38' W 074°08'0 0.0
2017-Oct-12 01:00N 40°38' W 074°08'0 0.0
2017-Oct-12 00:30N 40°38' W 074°08'0 0.0
2017-Oct-12 00:00N 40°38' W 074°08'0 0.0
2017-Oct-11 23:30N 40°38' W 074°08'0 0.0
2017-Oct-11 23:00N 40°38' W 074°08'0 0.0
2017-Oct-11 22:30N 40°38' W 074°08'0 0.0
2017-Oct-11 22:00N 40°38' W 074°08'1 2.9
2017-Oct-11 21:30N 40°40' W 074°09'1 1.0
2017-Oct-11 20:59N 40°40' W 074°08'0 0.7
2017-Oct-11 20:30N 40°41' W 074°08'2 4.3
2017-Oct-11 20:00N 40°39' W 074°07'2 4.7
2017-Oct-11 19:30N 40°40' W 074°05'1 0.9
2017-Oct-11 18:57N 40°40' W 074°04'0 0.3
2017-Oct-11 18:30N 40°40' W 074°04'1 1.8
2017-Oct-11 18:00N 40°40' W 074°03'0 0.6
2017-Oct-11 17:30N 40°40' W 074°03'0 0.0
2017-Oct-11 17:00N 40°40' W 074°03'4 0.2
2017-Oct-11 00:00N 40°38' W 074°08'1 2.2
2017-Oct-10 23:30N 40°39' W 074°09'2 3.8
2017-Oct-10 23:00N 40°41' W 074°08'0 0.8
2017-Oct-10 22:30N 40°41' W 074°09'1 2.1
2017-Oct-10 22:00N 40°42' W 074°09'0 0.2
2017-Oct-10 21:30N 40°42' W 074°09'2 4.3
2017-Oct-10 21:00N 40°40' W 074°08'2 3.8
2017-Oct-10 20:30N 40°39' W 074°06'3 5.8
2017-Oct-10 20:00N 40°40' W 074°03'2 4.4
2017-Oct-10 19:30N 40°41' W 074°00'1 2.7
2017-Oct-10 19:00N 40°40' W 074°02'0 0.7
2017-Oct-10 18:29N 40°40' W 074°02'0 0.2
2017-Oct-10 17:59N 40°40' W 074°02'0 0.0
2017-Oct-10 17:29N 40°40' W 074°02'0 0.0
2017-Oct-10 16:59N 40°40' W 074°02'0 0.1
2017-Oct-10 16:29N 40°40' W 074°02'0 0.1
2017-Oct-10 15:59N 40°40' W 074°02'0 0.0
2017-Oct-10 15:29N 40°40' W 074°02'0 0.0
2017-Oct-10 14:59N 40°40' W 074°02'0 0.1
2017-Oct-10 13:59N 40°40' W 074°02'0 0.0
2017-Oct-10 13:30N 40°40' W 074°02'1 1.8
2017-Oct-10 13:01N 40°40' W 074°03'4 7.9
2017-Oct-10 12:30N 40°38' W 074°08'0 0.0
2017-Oct-10 12:00N 40°38' W 074°08'0 0.0
2017-Oct-10 11:30N 40°38' W 074°08'0 0.0
2017-Oct-10 11:00N 40°38' W 074°08'0 0.0
2017-Oct-10 10:30N 40°38' W 074°08'2 3.6
2017-Oct-10 10:00N 40°40' W 074°08'2 3.5
2017-Oct-10 09:30N 40°39' W 074°09'3 6.6
2017-Oct-10 09:00N 40°39' W 074°04'3 6.0
2017-Oct-10 08:30N 40°36' W 074°02'3 6.7
2017-Oct-10 08:00N 40°39' W 074°05'2 3.7
2017-Oct-10 07:30N 40°38' W 074°08'0 0.0
2017-Oct-10 06:59N 40°38' W 074°08'0 0.0
2017-Oct-10 06:29N 40°38' W 074°08'0 0.0
2017-Oct-10 05:59N 40°38' W 074°08'0 0.0
2017-Oct-10 05:29N 40°38' W 074°08'0 0.0
2017-Oct-10 04:59N 40°38' W 074°08'0 0.0
2017-Oct-10 04:29N 40°38' W 074°08'0 0.0
2017-Oct-10 04:01N 40°38' W 074°08'0 0.0
2017-Oct-10 03:31N 40°38' W 074°08'0 0.0
2017-Oct-10 03:00N 40°38' W 074°08'0 0.0
2017-Oct-10 02:30N 40°38' W 074°08'0 0.0
2017-Oct-10 02:01N 40°38' W 074°08'0 0.0
2017-Oct-10 01:31N 40°38' W 074°08'0 0.0
2017-Oct-10 01:01N 40°38' W 074°08'0 0.0
2017-Oct-10 00:30N 40°38' W 074°08'0 0.0
2017-Oct-10 00:01N 40°38' W 074°08'0 0.0
2017-Oct-09 23:30N 40°38' W 074°08'0 0.0
2017-Oct-09 23:00N 40°38' W 074°08'0 0.0
2017-Oct-09 22:31N 40°38' W 074°08'0 0.0
2017-Oct-09 22:01N 40°38' W 074°08'1 1.4
2017-Oct-09 21:31N 40°39' W 074°09'2 4.5
2017-Oct-09 21:01N 40°41' W 074°09'2 4.4
2017-Oct-09 20:30N 40°39' W 074°09'3 5.7
2017-Oct-09 20:01N 40°39' W 074°05'2 3.8
2017-Oct-09 19:31N 40°39' W 074°08'0 0.3
2017-Oct-09 19:00N 40°38' W 074°08'0 0.0
2017-Oct-09 18:30N 40°38' W 074°08'0 0.0
2017-Oct-09 18:00N 40°38' W 074°08'0 0.0
2017-Oct-09 17:30N 40°38' W 074°08'0 0.0
2017-Oct-09 17:00N 40°38' W 074°08'0 0.0
2017-Oct-09 16:30N 40°38' W 074°08'0 0.0
2017-Oct-09 16:00N 40°38' W 074°08'0 0.0
2017-Oct-09 15:30N 40°38' W 074°08'0 0.0
2017-Oct-09 15:00N 40°38' W 074°08'0 0.0
2017-Oct-09 14:30N 40°38' W 074°08'0 0.0
2017-Oct-09 14:00N 40°38' W 074°08'0 0.0
2017-Oct-09 13:30N 40°38' W 074°08'0 0.0
2017-Oct-09 13:00N 40°38' W 074°08'0 0.0
2017-Oct-09 12:08N 40°38' W 074°08'0 0.0
2017-Oct-09 11:59N 40°38' W 074°08'0 0.0
2017-Oct-09 11:29N 40°38' W 074°08'0 0.0
2017-Oct-09 10:35N 40°38' W 074°08'0 0.0
2017-Oct-09 10:11N 40°38' W 074°08'0 0.0
2017-Oct-09 09:59N 40°38' W 074°08'0 0.0
2017-Oct-09 09:29N 40°38' W 074°08'0 0.0
2017-Oct-09 08:05N 40°38' W 074°08'0 0.0
2017-Oct-09 07:53N 40°38' W 074°08'0 0.0
2017-Oct-09 07:29N 40°38' W 074°08'0 0.0
2017-Oct-09 06:59N 40°38' W 074°08'0 0.0
2017-Oct-09 06:17N 40°38' W 074°08'0 0.0
2017-Oct-09 05:59N 40°38' W 074°08'0 0.0
2017-Oct-09 04:53N 40°38' W 074°08'0 0.0
2017-Oct-09 03:17N 40°38' W 074°08'0 0.0
2017-Oct-09 02:47N 40°38' W 074°08'0 0.0
2017-Oct-09 02:29N 40°38' W 074°08'0 0.0
2017-Oct-09 01:53N 40°38' W 074°08'0 0.0
2017-Oct-09 01:29N 40°38' W 074°08'0 0.0
2017-Oct-09 00:53N 40°38' W 074°08'0 0.0
2017-Oct-09 00:29N 40°38' W 074°08'0 0.0
2017-Oct-08 23:59N 40°38' W 074°08'0 0.0
2017-Oct-08 22:41N 40°38' W 074°08'0 0.0
2017-Oct-08 22:23N 40°38' W 074°08'0 0.0
2017-Oct-08 21:59N 40°38' W 074°08'0 0.0
2017-Oct-08 21:26N 40°38' W 074°08'0 0.0
2017-Oct-08 20:56N 40°38' W 074°08'0 0.0
2017-Oct-08 19:35N 40°38' W 074°08'0 0.0
2017-Oct-08 19:20N 40°38' W 074°08'0 0.0
2017-Oct-08 18:41N 40°38' W 074°08'0 0.0
2017-Oct-08 18:23N 40°38' W 074°08'0 0.0
2017-Oct-08 15:50N 40°38' W 074°08'0 0.0
2017-Oct-08 15:26N 40°38' W 074°08'0 0.0
2017-Oct-08 14:56N 40°38' W 074°08'0 0.0
2017-Oct-08 14:26N 40°38' W 074°08'0 0.0
2017-Oct-08 13:56N 40°38' W 074°08'0 0.0
2017-Oct-08 13:20N 40°38' W 074°08'0 0.0
2017-Oct-08 12:50N 40°38' W 074°08'0 0.0
2017-Oct-08 07:50N 40°38' W 074°08'  

Dump ship's entire track history